Time;durP1;ratioP1;P1;durP2;ratioP2;P2;SDS_P1;SDS_P2;PMS_P1;PMS_P2;Temp;Humidity;BMP_temperature;BMP_pressure;BME280_temperature;BME280_humidity;BME280_pressure;Samples;Min_cycle;Max_cycle;Signal;HPM_P1;HPM_P2
2022/07/09 00:01:25;;;;;;;5.00;1.60;;;21.10;99.90;;;;;;2001959;72;21094;-88
2022/07/09 00:04:17;;;;;;;3.60;1.00;;;21.10;99.90;;;;;;2011127;70;21022;-88
2022/07/09 00:07:08;;;;;;;3.05;1.10;;;21.00;99.90;;;;;;2009874;70;21073;-88
2022/07/09 00:10:00;;;;;;;4.03;1.45;;;20.90;99.90;;;;;;2033494;70;21022;-88
2022/07/09 00:12:51;;;;;;;3.52;1.05;;;20.90;99.90;;;;;;2024821;70;21024;-88
2022/07/09 00:15:43;;;;;;;3.33;1.10;;;21.00;99.90;;;;;;2026860;70;21046;-88
2022/07/09 00:18:35;;;;;;;2.45;0.90;;;20.90;99.90;;;;;;2001717;72;21033;-88
2022/07/09 00:21:27;;;;;;;2.30;0.93;;;20.80;99.90;;;;;;2001291;70;21625;-87
2022/07/09 00:24:18;;;;;;;2.80;0.95;;;20.80;99.90;;;;;;2026224;70;21142;-88
2022/07/09 00:27:10;;;;;;;2.55;1.10;;;20.70;99.90;;;;;;2001530;70;21121;-88
2022/07/09 00:30:01;;;;;;;4.25;0.95;;;20.70;99.90;;;;;;2001785;72;21138;-87
2022/07/09 00:32:53;;;;;;;3.77;0.90;;;20.70;99.90;;;;;;2022017;70;21014;-88
2022/07/09 00:35:44;;;;;;;3.40;1.10;;;20.70;99.90;;;;;;2016119;70;21143;-88
2022/07/09 00:38:36;;;;;;;4.37;1.00;;;20.70;99.90;;;;;;2030120;70;21033;-88
2022/07/09 00:41:27;;;;;;;3.05;1.00;;;20.60;99.90;;;;;;2026481;70;21080;-87
2022/07/09 00:44:19;;;;;;;3.77;1.20;;;20.60;99.90;;;;;;2002146;71;21142;-87
2022/07/09 00:47:11;;;;;;;3.20;0.93;;;20.60;99.90;;;;;;2002000;72;21047;-88
2022/07/09 00:50:02;;;;;;;3.17;1.27;;;20.60;99.90;;;;;;2012176;70;21111;-88
2022/07/09 00:52:54;;;;;;;5.03;1.25;;;20.60;99.90;;;;;;2013780;70;21025;-88
2022/07/09 00:55:47;;;;;;;3.70;1.05;;;20.50;99.90;;;;;;2012144;70;21067;-89
2022/07/09 00:58:39;;;;;;;4.17;1.27;;;20.50;99.90;;;;;;1995105;72;21142;-88
2022/07/09 01:01:32;;;;;;;3.62;1.20;;;20.50;99.90;;;;;;2007367;70;21091;-88
2022/07/09 01:04:23;;;;;;;2.77;1.05;;;20.50;99.90;;;;;;2025131;70;21069;-88
2022/07/09 01:07:15;;;;;;;10.60;1.30;;;20.40;99.90;;;;;;2020337;70;21055;-88
2022/07/09 01:10:08;;;;;;;4.50;1.30;;;20.40;99.90;;;;;;2012682;70;22254;-88
2022/07/09 01:13:00;;;;;;;2.67;1.00;;;20.30;99.90;;;;;;2008884;70;21521;-88
2022/07/09 01:15:51;;;;;;;1.95;1.27;;;20.20;99.90;;;;;;2007359;70;21065;-88
2022/07/09 01:18:45;;;;;;;4.83;0.90;;;20.00;99.90;;;;;;2004495;70;21065;-88
2022/07/09 01:21:37;;;;;;;3.87;0.98;;;19.90;99.90;;;;;;2016779;70;21565;-89
2022/07/09 01:24:28;;;;;;;3.40;1.50;;;20.00;99.90;;;;;;2015486;70;21026;-88
2022/07/09 01:27:19;;;;;;;2.75;1.10;;;20.00;99.90;;;;;;2021388;70;21065;-88
2022/07/09 01:30:12;;;;;;;4.00;1.10;;;20.00;99.90;;;;;;1995219;72;21062;-88
2022/07/09 01:33:04;;;;;;;4.87;1.15;;;20.10;99.90;;;;;;2017665;70;21022;-88
2022/07/09 01:35:55;;;;;;;3.08;0.90;;;20.10;99.90;;;;;;2012092;70;21070;-88
2022/07/09 01:38:46;;;;;;;3.45;0.90;;;20.00;99.90;;;;;;2020351;70;21034;-88
2022/07/09 01:41:38;;;;;;;3.92;1.02;;;20.00;99.90;;;;;;2019213;70;21073;-89
2022/07/09 01:44:29;;;;;;;3.52;1.25;;;19.90;99.90;;;;;;2018898;70;21057;-89
2022/07/09 01:47:21;;;;;;;4.58;1.20;;;19.80;99.90;;;;;;2013323;70;21018;-88
2022/07/09 01:50:12;;;;;;;2.05;0.98;;;19.80;99.90;;;;;;2007882;70;21030;-88
2022/07/09 01:53:04;;;;;;;2.30;0.85;;;19.70;99.90;;;;;;2006846;70;21124;-88
2022/07/09 01:55:55;;;;;;;1.77;0.98;;;19.70;99.90;;;;;;2006664;70;21097;-88
2022/07/09 01:58:47;;;;;;;2.92;0.98;;;19.60;99.90;;;;;;2012222;70;21146;-88
2022/07/09 02:01:48;;;;;;;2.20;1.07;;;19.60;99.90;;;;;;2009430;70;21037;-88
2022/07/09 02:04:39;;;;;;;2.03;0.80;;;19.60;99.90;;;;;;2007043;70;21131;-88
2022/07/09 02:07:31;;;;;;;4.70;1.20;;;19.50;99.90;;;;;;2007227;70;21026;-88
2022/07/09 02:10:22;;;;;;;2.65;0.95;;;19.60;99.90;;;;;;2008876;70;21071;-88
2022/07/09 02:13:13;;;;;;;3.12;1.00;;;19.60;99.90;;;;;;2011883;70;21057;-88
2022/07/09 02:16:05;;;;;;;3.52;1.05;;;19.70;99.90;;;;;;1996207;70;21022;-88
2022/07/09 02:18:58;;;;;;;3.00;1.00;;;19.60;99.90;;;;;;1978922;70;21040;-88
2022/07/09 02:21:49;;;;;;;1.57;1.00;;;19.60;99.90;;;;;;2018816;70;21065;-88
2022/07/09 02:24:42;;;;;;;2.87;1.00;;;19.60;99.90;;;;;;2013032;70;21066;-87
2022/07/09 02:27:33;;;;;;;3.20;1.17;;;19.60;99.90;;;;;;2007499;70;21543;-88
2022/07/09 02:30:25;;;;;;;2.50;1.10;;;19.50;99.90;;;;;;2000364;70;21025;-88
2022/07/09 02:33:16;;;;;;;1.95;1.00;;;19.50;99.90;;;;;;1996399;70;21099;-88
2022/07/09 02:36:08;;;;;;;1.92;1.15;;;19.40;99.90;;;;;;2011522;70;21135;-88
2022/07/09 02:38:59;;;;;;;2.75;0.98;;;19.30;99.90;;;;;;2009302;70;21162;-88
2022/07/09 02:41:50;;;;;;;3.72;1.07;;;19.10;99.90;;;;;;1998358;70;21918;-88
2022/07/09 02:44:43;;;;;;;2.70;1.30;;;19.00;99.90;;;;;;2019556;70;21130;-88
2022/07/09 02:47:34;;;;;;;1.95;0.85;;;19.00;99.90;;;;;;2009056;70;21022;-88
2022/07/09 02:50:26;;;;;;;2.50;1.00;;;19.10;99.90;;;;;;2010813;70;21097;-88
2022/07/09 02:55:56;;;;;;;5.20;0.90;;;19.20;99.90;;;;;;1975466;72;22727;-87
2022/07/09 02:58:47;;;;;;;1.55;1.00;;;19.10;99.90;;;;;;1923040;74;21106;-88
2022/07/09 03:01:38;;;;;;;3.15;1.25;;;19.10;99.90;;;;;;1905247;75;21052;-88
2022/07/09 03:04:30;;;;;;;1.60;0.88;;;19.10;99.90;;;;;;1905545;75;21080;-88
2022/07/09 03:07:21;;;;;;;2.52;0.70;;;19.20;99.90;;;;;;1905338;75;21106;-88
2022/07/09 03:10:12;;;;;;;2.58;0.85;;;19.20;99.90;;;;;;1923490;74;21039;-89
2022/07/09 03:13:04;;;;;;;1.17;0.93;;;19.20;99.90;;;;;;1905380;75;21197;-88
2022/07/09 03:15:57;;;;;;;3.77;0.80;;;19.30;99.90;;;;;;1907092;75;21131;-88
2022/07/09 03:18:49;;;;;;;1.00;0.85;;;19.30;99.90;;;;;;1905404;75;21127;-89
2022/07/09 03:21:40;;;;;;;1.45;0.90;;;19.30;99.90;;;;;;1905516;75;21059;-88
2022/07/09 03:24:32;;;;;;;4.33;1.00;;;19.40;99.90;;;;;;1905343;75;21071;-88
2022/07/09 03:27:24;;;;;;;0.90;0.70;;;19.30;99.90;;;;;;1905400;75;21095;-88
2022/07/09 03:32:58;;;;;;;0.72;0.70;;;19.30;99.90;;;;;;1940454;72;22100;-88
2022/07/09 03:35:49;;;;;;;2.10;0.90;;;19.40;99.90;;;;;;1930150;73;21042;-87
2022/07/09 03:38:41;;;;;;;0.90;0.82;;;19.30;99.90;;;;;;1926268;73;21084;-88
2022/07/09 03:41:33;;;;;;;1.37;0.72;;;19.30;99.90;;;;;;1922477;73;21651;-88
2022/07/09 03:44:24;;;;;;;2.98;0.90;;;19.30;99.90;;;;;;1936250;73;21055;-89
2022/07/09 03:47:15;;;;;;;2.58;1.05;;;19.30;99.90;;;;;;1933036;73;21154;-89
2022/07/09 03:50:09;;;;;;;1.60;0.75;;;19.20;99.90;;;;;;1925242;73;21092;-88
2022/07/09 03:53:00;;;;;;;2.22;1.00;;;19.20;99.90;;;;;;1943040;73;21130;-89
2022/07/09 03:55:51;;;;;;;1.37;0.95;;;19.10;99.90;;;;;;1914995;75;21085;-88
2022/07/09 03:58:43;;;;;;;1.37;0.90;;;19.00;99.90;;;;;;1915005;75;21063;-89
2022/07/09 04:01:35;;;;;;;4.37;1.00;;;19.00;99.90;;;;;;1926888;73;21038;-88
2022/07/09 04:04:26;;;;;;;2.05;0.88;;;18.90;99.90;;;;;;1925865;73;21543;-87
2022/07/09 04:07:18;;;;;;;0.98;0.85;;;18.80;99.90;;;;;;1926310;73;21054;-87
2022/07/09 04:10:10;;;;;;;2.25;1.00;;;18.80;99.90;;;;;;1949084;73;21075;-88
2022/07/09 04:13:01;;;;;;;3.00;1.10;;;18.90;99.90;;;;;;1928856;73;21043;-82
2022/07/09 04:15:53;;;;;;;2.30;1.17;;;18.90;99.90;;;;;;1925767;73;21038;-81
2022/07/09 04:18:44;;;;;;;3.85;1.35;;;19.00;99.90;;;;;;1932762;73;21089;-80
2022/07/09 04:21:36;;;;;;;3.70;1.35;;;19.00;99.90;;;;;;1919489;73;21097;-80
2022/07/09 04:24:30;;;;;;;2.98;1.77;;;18.90;99.90;;;;;;1930468;73;21091;-79
2022/07/09 04:27:22;;;;;;;5.53;1.77;;;19.00;99.90;;;;;;1919098;72;21130;-79
2022/07/09 04:30:13;;;;;;;4.45;2.10;;;19.00;99.90;;;;;;1919303;73;21053;-79
2022/07/09 04:33:04;;;;;;;4.17;2.58;;;19.00;99.90;;;;;;1919642;73;21062;-79
2022/07/09 04:35:55;;;;;;;1.87;1.45;;;19.00;99.90;;;;;;1920408;73;21050;-79
2022/07/09 04:38:46;;;;;;;5.20;2.60;;;19.00;99.90;;;;;;1924678;74;21160;-79
2022/07/09 04:41:38;;;;;;;4.78;3.02;;;19.00;99.90;;;;;;1916712;74;21090;-78
2022/07/09 04:44:29;;;;;;;6.03;2.55;;;19.10;99.90;;;;;;1927949;73;21090;-78
2022/07/09 04:47:21;;;;;;;7.55;2.20;;;19.10;99.90;;;;;;1924911;74;21094;-79
2022/07/09 04:50:12;;;;;;;5.35;2.27;;;19.10;99.90;;;;;;1919430;74;21051;-79
2022/07/09 04:53:04;;;;;;;4.33;2.20;;;19.20;99.90;;;;;;1929962;74;21062;-79
2022/07/09 04:55:56;;;;;;;4.50;2.00;;;19.20;99.90;;;;;;1930187;74;21113;-79
2022/07/09 04:58:52;;;;;;;6.90;1.98;;;19.30;99.90;;;;;;1922371;74;21105;-79
2022/07/09 05:01:43;;;;;;;4.22;1.70;;;19.20;99.90;;;;;;1915687;74;21084;-79
2022/07/09 05:04:34;;;;;;;3.77;1.77;;;19.10;99.90;;;;;;1929916;74;21135;-79
2022/07/09 05:07:26;;;;;;;3.40;1.72;;;19.10;99.90;;;;;;1930311;74;21207;-80
2022/07/09 05:10:17;;;;;;;3.98;2.05;;;19.10;99.90;;;;;;1916411;74;21168;-80
2022/07/09 05:13:09;;;;;;;2.75;1.50;;;19.10;99.90;;;;;;1922298;74;21039;-79
2022/07/09 05:16:00;;;;;;;3.83;1.85;;;19.20;99.90;;;;;;1918601;73;21494;-79
2022/07/09 05:18:52;;;;;;;3.50;1.15;;;19.20;99.90;;;;;;1918072;73;21047;-79
2022/07/09 05:21:43;;;;;;;1.95;1.17;;;19.20;99.90;;;;;;1928167;74;21106;-79
2022/07/09 05:24:35;;;;;;;2.92;1.30;;;19.30;99.90;;;;;;1915535;73;21120;-79
2022/07/09 05:27:27;;;;;;;2.72;1.32;;;19.40;99.90;;;;;;1913333;74;21140;-79
2022/07/09 05:30:18;;;;;;;2.60;1.30;;;19.40;99.90;;;;;;1912872;74;21116;-79
2022/07/09 05:33:10;;;;;;;3.52;1.47;;;19.40;99.90;;;;;;1928871;74;21567;-79
2022/07/09 05:36:02;;;;;;;2.75;1.20;;;19.40;99.90;;;;;;1922120;74;21101;-79
2022/07/09 05:38:53;;;;;;;3.25;1.40;;;19.40;99.90;;;;;;1922182;74;21098;-79
2022/07/09 05:41:45;;;;;;;6.87;1.47;;;19.40;99.90;;;;;;1930136;74;21095;-79
2022/07/09 05:44:36;;;;;;;3.77;1.35;;;19.50;99.90;;;;;;1916013;74;21160;-79
2022/07/09 05:47:28;;;;;;;2.05;1.52;;;19.60;99.90;;;;;;1923022;73;21110;-79
2022/07/09 05:50:19;;;;;;;2.72;1.50;;;19.60;99.90;;;;;;1918289;74;21082;-79
2022/07/09 05:53:11;;;;;;;3.87;1.57;;;19.70;99.90;;;;;;1918527;73;21104;-78
2022/07/09 05:56:02;;;;;;;4.58;2.00;;;19.60;99.90;;;;;;1918391;73;21058;-78
2022/07/09 05:58:54;;;;;;;3.60;2.10;;;19.70;99.90;;;;;;1912503;74;21079;-78
2022/07/09 06:01:45;;;;;;;3.33;1.80;;;19.70;99.90;;;;;;1912194;74;21086;-79
2022/07/09 06:04:36;;;;;;;3.05;1.92;;;19.80;99.90;;;;;;1912169;73;21038;-79
2022/07/09 06:07:28;;;;;;;1.90;1.60;;;19.90;99.90;;;;;;1917390;73;21082;-78
2022/07/09 06:10:20;;;;;;;2.25;1.82;;;20.00;99.90;;;;;;1920515;73;21077;-78
2022/07/09 06:13:11;;;;;;;3.05;1.90;;;20.10;99.90;;;;;;1911195;74;21525;-78
2022/07/09 06:16:03;;;;;;;2.37;1.27;;;20.10;99.90;;;;;;1920233;74;21167;-78
2022/07/09 06:18:55;;;;;;;1.42;1.25;;;20.20;99.90;;;;;;1918320;73;21071;-78
2022/07/09 06:21:46;;;;;;;1.50;1.02;;;20.20;99.90;;;;;;1908134;74;21122;-78
2022/07/09 06:24:38;;;;;;;2.80;1.40;;;20.20;99.90;;;;;;1914317;74;21122;-79
2022/07/09 06:27:29;;;;;;;2.02;1.27;;;20.20;99.90;;;;;;1923442;74;21055;-81
2022/07/09 06:30:20;;;;;;;2.10;1.20;;;20.20;99.90;;;;;;1919608;74;21043;-81
2022/07/09 06:33:12;;;;;;;2.92;1.10;;;20.30;99.90;;;;;;1913785;74;21074;-82
2022/07/09 06:36:03;;;;;;;1.90;1.10;;;20.40;99.90;;;;;;1925296;74;21585;-82
2022/07/09 06:42:08;;;;;;;1.87;1.00;;;20.60;99.90;;;;;;1918255;74;21070;-81
2022/07/09 06:45:00;;;;;;;2.27;1.15;;;20.60;99.90;;;;;;1915916;73;21073;-81
2022/07/09 06:47:52;;;;;;;2.40;1.32;;;20.70;99.90;;;;;;1929467;74;21039;-81
2022/07/09 06:50:44;;;;;;;2.85;1.10;;;20.70;99.90;;;;;;1925473;74;21140;-81
2022/07/09 06:53:35;;;;;;;2.98;1.32;;;20.60;99.90;;;;;;1921094;74;21090;-81
2022/07/09 06:56:26;;;;;;;2.17;1.10;;;20.60;99.90;;;;;;1918181;73;21185;-81
2022/07/09 06:59:18;;;;;;;1.57;1.20;;;20.60;99.90;;;;;;1918251;73;21226;-81
2022/07/09 07:02:10;;;;;;;2.62;1.15;;;20.70;99.90;;;;;;1936338;73;21090;-82
2022/07/09 07:07:40;;;;;;;2.17;1.40;;;20.90;99.90;;;;;;1951296;72;22213;-81
2022/07/09 07:10:31;;;;;;;1.98;1.40;;;21.00;99.90;;;;;;1896328;74;21180;-82
2022/07/09 07:13:22;;;;;;;2.20;1.20;;;21.10;99.90;;;;;;1902867;75;21147;-81
2022/07/09 07:16:14;;;;;;;1.80;1.07;;;21.20;99.90;;;;;;1897483;75;21055;-81
2022/07/09 07:19:05;;;;;;;2.30;1.15;;;21.20;99.90;;;;;;1895713;75;21168;-82
2022/07/09 07:21:56;;;;;;;1.95;1.10;;;21.30;99.90;;;;;;1895367;75;21109;-83
2022/07/09 07:24:48;;;;;;;6.42;1.30;;;21.40;99.90;;;;;;1898540;75;21222;-82
2022/07/09 07:27:39;;;;;;;1.27;1.10;;;21.50;99.90;;;;;;1898424;75;21152;-82
2022/07/09 07:30:32;;;;;;;4.25;1.47;;;21.60;99.90;;;;;;1886340;75;21060;-82
2022/07/09 07:33:23;;;;;;;2.42;1.10;;;21.60;99.90;;;;;;1906966;75;21047;-83
2022/07/09 07:36:15;;;;;;;3.37;1.27;;;21.70;99.90;;;;;;1904977;75;21608;-83
2022/07/09 07:39:06;;;;;;;2.12;1.10;;;21.60;99.90;;;;;;1902426;75;21058;-82
2022/07/09 07:41:58;;;;;;;2.45;1.10;;;21.70;99.90;;;;;;1906917;75;21066;-82
2022/07/09 07:44:49;;;;;;;2.45;1.27;;;21.70;99.90;;;;;;1906825;75;21124;-82
2022/07/09 07:47:40;;;;;;;2.52;1.00;;;21.80;99.90;;;;;;1906265;75;21568;-83
2022/07/09 07:50:32;;;;;;;2.35;1.20;;;21.90;99.90;;;;;;1901134;75;21087;-83
2022/07/09 07:53:23;;;;;;;2.72;1.10;;;21.90;99.90;;;;;;1896203;75;21102;-83
2022/07/09 07:56:16;;;;;;;4.08;1.35;;;22.00;99.90;;;;;;1895256;75;21047;-82
2022/07/09 07:59:08;;;;;;;2.83;1.00;;;22.10;99.90;;;;;;1895501;75;21118;-82
2022/07/09 08:02:00;;;;;;;3.12;1.30;;;22.20;99.90;;;;;;1917658;75;21090;-83
2022/07/09 08:04:52;;;;;;;2.08;1.10;;;22.20;99.90;;;;;;1898316;75;21091;-82
2022/07/09 08:07:43;;;;;;;2.52;1.50;;;22.20;99.90;;;;;;1905198;74;21073;-82
2022/07/09 08:10:34;;;;;;;1.25;1.10;;;22.40;99.90;;;;;;1911651;74;21135;-82
2022/07/09 08:13:28;;;;;;;3.37;1.40;;;22.50;99.90;;;;;;1913734;74;21120;-82
2022/07/09 08:16:20;;;;;;;2.58;1.30;;;22.50;99.90;;;;;;1900582;75;21063;-76
2022/07/09 08:19:13;;;;;;;3.12;1.15;;;22.50;99.90;;;;;;1922381;74;21663;-76
2022/07/09 08:22:05;;;;;;;2.12;1.20;;;22.50;99.90;;;;;;1921979;74;21152;-76
2022/07/09 08:24:56;;;;;;;1.67;1.40;;;22.60;99.90;;;;;;1921259;74;21055;-76
2022/07/09 08:27:49;;;;;;;4.05;1.52;;;22.60;99.90;;;;;;1915606;74;21117;-76
2022/07/09 08:30:40;;;;;;;2.75;1.25;;;22.70;99.90;;;;;;1922489;74;21059;-76
2022/07/09 08:33:32;;;;;;;4.37;1.40;;;22.70;99.90;;;;;;1922243;74;21091;-76
2022/07/09 08:36:23;;;;;;;3.40;1.42;;;22.80;99.90;;;;;;1921616;74;21056;-76
2022/07/09 08:39:14;;;;;;;2.75;1.12;;;22.90;99.90;;;;;;1916250;74;21156;-76
2022/07/09 08:42:09;;;;;;;3.50;1.50;;;23.00;99.90;;;;;;1899912;75;21181;-76
2022/07/09 08:45:03;;;;;;;2.35;1.15;;;23.10;99.90;;;;;;1921926;74;21054;-76
2022/07/09 08:47:55;;;;;;;2.98;1.30;;;23.00;99.90;;;;;;1921982;74;21142;-76
2022/07/09 08:50:47;;;;;;;4.15;1.35;;;23.00;99.90;;;;;;1918977;74;21164;-76
2022/07/09 08:53:41;;;;;;;2.15;1.30;;;23.10;99.90;;;;;;1913523;74;21046;-77
2022/07/09 08:56:33;;;;;;;2.85;1.40;;;23.00;99.90;;;;;;1910683;74;21050;-76
2022/07/09 08:59:24;;;;;;;2.75;1.05;;;23.00;99.90;;;;;;1910860;74;21093;-76
2022/07/09 09:02:19;;;;;;;1.65;1.17;;;23.10;99.90;;;;;;1911865;74;21095;-77
2022/07/09 09:05:13;;;;;;;2.00;1.00;;;23.20;99.90;;;;;;1915972;74;21128;-77
2022/07/09 09:08:19;;;;;;;2.72;0.90;;;23.30;99.90;;;;;;1920878;74;21513;-77
2022/07/09 09:11:14;;;;;;;2.22;0.90;;;23.40;99.90;;;;;;1922102;74;21467;-76
2022/07/09 09:14:06;;;;;;;2.92;1.10;;;23.50;99.90;;;;;;1905685;74;21152;-76
2022/07/09 09:17:04;;;;;;;4.05;1.85;;;23.50;99.90;;;;;;1910835;74;21091;-75
2022/07/09 09:19:56;;;;;;;2.17;1.10;;;23.50;99.90;;;;;;1899885;75;21099;-77
2022/07/09 09:22:49;;;;;;;2.72;1.20;;;23.60;99.90;;;;;;1913782;74;21039;-76
2022/07/09 09:25:41;;;;;;;1.12;0.98;;;23.70;99.90;;;;;;1910597;74;21101;-76
2022/07/09 09:28:33;;;;;;;3.62;1.17;;;23.70;99.90;;;;;;1910607;74;21132;-76
2022/07/09 09:31:26;;;;;;;3.17;1.10;;;23.80;99.90;;;;;;1912260;74;21175;-76
2022/07/09 09:34:18;;;;;;;2.62;1.20;;;23.90;99.90;;;;;;1899907;75;21160;-76
2022/07/09 09:37:10;;;;;;;1.62;1.20;;;24.00;99.90;;;;;;1899819;74;21099;-76
2022/07/09 09:40:10;;;;;;;3.70;1.40;;;24.10;99.90;;;;;;1904899;74;21059;-82
2022/07/09 09:43:03;;;;;;;2.30;1.30;;;24.10;99.90;;;;;;1910718;74;21132;-82
2022/07/09 09:45:58;;;;;;;1.45;1.10;;;24.10;99.90;;;;;;1914413;74;21059;-82
2022/07/09 09:48:51;;;;;;;3.25;1.40;;;24.20;99.90;;;;;;1913494;74;21054;-81
2022/07/09 09:51:49;;;;;;;1.50;1.20;;;24.30;99.90;;;;;;1910794;74;21050;-83
2022/07/09 09:54:42;;;;;;;2.58;1.30;;;24.30;99.90;;;;;;1910882;74;21098;-82
2022/07/09 09:57:34;;;;;;;2.65;1.25;;;24.50;99.90;;;;;;1910874;74;21070;-83
2022/07/09 10:00:25;;;;;;;4.25;1.47;;;24.60;99.90;;;;;;1915044;74;21086;-82
2022/07/09 10:03:18;;;;;;;2.05;1.50;;;24.60;99.90;;;;;;1912426;74;21576;-82
2022/07/09 10:06:10;;;;;;;4.40;1.60;;;24.60;99.90;;;;;;1910612;74;21047;-83
2022/07/09 10:09:03;;;;;;;5.12;1.10;;;24.70;99.90;;;;;;1910424;74;21129;-82
2022/07/09 10:11:55;;;;;;;6.92;1.47;;;24.70;99.90;;;;;;1913375;74;21063;-83
2022/07/09 10:14:47;;;;;;;4.28;1.92;;;24.90;99.90;;;;;;1914089;74;21102;-82
2022/07/09 10:17:42;;;;;;;2.58;1.57;;;25.00;99.90;;;;;;1902891;74;21091;-83
2022/07/09 10:20:36;;;;;;;5.22;1.62;;;25.10;99.90;;;;;;1905023;74;21043;-83
2022/07/09 10:23:28;;;;;;;3.22;1.25;;;25.20;99.90;;;;;;1910494;74;21149;-83
2022/07/09 10:26:19;;;;;;;1.80;1.07;;;25.20;99.90;;;;;;1915325;74;21057;-84
2022/07/09 10:29:24;;;;;;;3.30;1.30;;;25.30;99.90;;;;;;1911854;74;21479;-81
2022/07/09 10:32:22;;;;;;;2.20;1.30;;;25.40;99.90;;;;;;1900358;74;21498;-84
2022/07/09 10:35:14;;;;;;;1.77;1.40;;;25.40;99.90;;;;;;1922202;74;21136;-83
2022/07/09 10:38:06;;;;;;;2.98;1.27;;;25.50;99.90;;;;;;1921542;74;21420;-83
2022/07/09 10:41:01;;;;;;;2.45;1.30;;;25.50;99.90;;;;;;1917724;74;21192;-83
2022/07/09 10:43:54;;;;;;;3.92;1.50;;;25.60;99.90;;;;;;1913569;74;21051;-83
2022/07/09 10:46:47;;;;;;;2.42;1.25;;;25.60;99.90;;;;;;1901995;74;21175;-83
2022/07/09 10:49:39;;;;;;;1.92;1.17;;;25.70;99.90;;;;;;1903518;74;21148;-83
2022/07/09 10:52:33;;;;;;;2.85;1.30;;;25.80;99.90;;;;;;1912178;74;21129;-83
2022/07/09 10:55:26;;;;;;;1.70;1.22;;;25.80;99.90;;;;;;1916155;74;21577;-83
2022/07/09 10:58:21;;;;;;;1.80;1.20;;;25.80;99.90;;;;;;1910963;74;21090;-83
2022/07/09 11:01:21;;;;;;;2.20;1.17;;;26.00;99.90;;;;;;1911127;74;21140;-83
2022/07/09 11:04:13;;;;;;;2.72;1.20;;;25.90;99.90;;;;;;1910605;74;21741;-83
2022/07/09 11:07:05;;;;;;;3.40;1.25;;;26.00;99.90;;;;;;1912376;74;21140;-83
2022/07/09 11:09:57;;;;;;;3.37;1.30;;;26.10;99.90;;;;;;1894706;75;21200;-83
2022/07/09 11:12:50;;;;;;;1.55;1.20;;;26.10;99.90;;;;;;1883850;75;21513;-83
2022/07/09 11:15:42;;;;;;;1.65;1.20;;;26.20;99.90;;;;;;1905968;75;21123;-83
2022/07/09 11:18:34;;;;;;;2.08;1.30;;;26.10;99.90;;;;;;1884756;75;21110;-83
2022/07/09 11:21:26;;;;;;;3.20;1.05;;;26.20;99.90;;;;;;1899378;75;21110;-83
2022/07/09 11:24:19;;;;;;;3.20;1.40;;;26.30;99.90;;;;;;1884001;76;21200;-84
2022/07/09 11:27:11;;;;;;;3.45;1.47;;;26.40;99.90;;;;;;1913294;75;21183;-83
2022/07/09 11:30:06;;;;;;;2.33;1.47;;;26.40;99.90;;;;;;1915633;75;21047;-82
2022/07/09 11:32:58;;;;;;;2.27;1.60;;;26.40;99.90;;;;;;1903107;75;21098;-83
2022/07/09 11:35:49;;;;;;;5.78;1.77;;;26.60;99.90;;;;;;1883958;75;21068;-84
2022/07/09 11:38:49;;;;;;;3.95;1.65;;;26.50;99.90;;;;;;1892532;75;21133;-83
2022/07/09 11:41:46;;;;;;;2.90;1.40;;;26.40;99.90;;;;;;1889154;75;21092;-83
2022/07/09 11:44:37;;;;;;;3.50;1.55;;;26.50;99.90;;;;;;1906269;75;21153;-83
2022/07/09 11:47:36;;;;;;;2.52;1.35;;;26.50;99.90;;;;;;1902469;75;21090;-83
2022/07/09 11:50:27;;;;;;;5.47;1.85;;;26.50;99.90;;;;;;1898777;75;21160;-82
2022/07/09 11:53:23;;;;;;;2.40;1.35;;;26.40;99.90;;;;;;1894947;75;21128;-83
2022/07/09 11:56:14;;;;;;;3.08;1.70;;;26.50;99.90;;;;;;1889551;75;21135;-83
2022/07/09 11:59:06;;;;;;;3.85;2.02;;;26.60;99.90;;;;;;1906351;75;21137;-82
2022/07/09 12:01:58;;;;;;;3.35;1.47;;;26.80;99.90;;;;;;1900107;75;21106;-82
2022/07/09 12:04:49;;;;;;;5.75;1.62;;;26.90;99.90;;;;;;1895855;75;21055;-82
2022/07/09 12:07:42;;;;;;;2.02;1.32;;;26.90;99.90;;;;;;1888492;75;21064;-83
2022/07/09 12:10:35;;;;;;;3.20;1.25;;;27.00;99.90;;;;;;1885886;75;21078;-83
2022/07/09 12:13:27;;;;;;;4.25;1.32;;;27.00;99.90;;;;;;1897801;75;21103;-82
2022/07/09 12:16:19;;;;;;;3.00;1.45;;;27.20;99.90;;;;;;1885754;75;21119;-83
2022/07/09 12:19:10;;;;;;;2.83;1.55;;;27.30;99.90;;;;;;1885885;75;21162;-82
2022/07/09 12:22:02;;;;;;;3.75;1.62;;;27.20;99.90;;;;;;1905820;75;21071;-82
2022/07/09 12:24:54;;;;;;;2.83;1.47;;;27.10;99.90;;;;;;1904073;75;21102;-82
2022/07/09 12:27:45;;;;;;;2.67;1.32;;;27.20;99.90;;;;;;1899262;75;21080;-83
2022/07/09 12:30:37;;;;;;;2.52;1.37;;;27.20;99.90;;;;;;1885118;75;21102;-82
2022/07/09 12:33:28;;;;;;;4.08;1.60;;;27.40;99.90;;;;;;1894096;75;21106;-82
2022/07/09 12:36:20;;;;;;;1.75;1.30;;;27.40;99.90;;;;;;1892112;75;21103;-82
2022/07/09 12:39:12;;;;;;;1.80;1.17;;;27.40;99.90;;;;;;1899038;75;21153;-81
2022/07/09 12:42:04;;;;;;;1.98;1.20;;;27.60;99.90;;;;;;1906637;75;21058;-82
2022/07/09 12:44:56;;;;;;;2.00;1.20;;;27.70;99.90;;;;;;1911367;75;21055;-82
2022/07/09 12:47:48;;;;;;;3.05;1.57;;;27.50;99.90;;;;;;1895300;75;21160;-82
2022/07/09 12:50:39;;;;;;;3.87;1.20;;;27.40;99.90;;;;;;1899642;75;21059;-82
2022/07/09 12:53:31;;;;;;;2.05;1.10;;;27.50;99.90;;;;;;1895553;75;21051;-82
2022/07/09 12:56:22;;;;;;;1.20;1.00;;;27.60;99.90;;;;;;1882565;75;21041;-81
2022/07/09 12:59:15;;;;;;;1.62;1.15;;;27.40;99.90;;;;;;1893729;75;21076;-82
2022/07/09 13:02:07;;;;;;;2.62;1.15;;;27.30;99.90;;;;;;1901909;75;21046;-82
2022/07/09 13:04:59;;;;;;;1.35;0.95;;;27.20;99.90;;;;;;1883998;75;21206;-81
2022/07/09 13:07:50;;;;;;;3.35;1.15;;;27.30;99.90;;;;;;1879105;75;21129;-81
2022/07/09 13:10:42;;;;;;;2.87;1.17;;;27.40;99.90;;;;;;1880667;75;21123;-81
2022/07/09 13:13:33;;;;;;;3.17;1.10;;;27.40;99.90;;;;;;1890567;75;21079;-81
2022/07/09 13:16:26;;;;;;;2.02;1.20;;;27.50;99.90;;;;;;1885396;75;21047;-82
2022/07/09 13:22:02;;;;;;;3.23;1.30;;;27.60;99.90;;;;;;1934836;72;28418;-81
2022/07/09 13:24:53;;;;;;;2.50;1.00;;;27.70;99.90;;;;;;1917441;75;21052;-81
2022/07/09 13:27:44;;;;;;;3.42;1.25;;;27.60;99.90;;;;;;1917423;75;21102;-81
2022/07/09 13:30:35;;;;;;;1.70;1.00;;;27.70;99.90;;;;;;1917530;75;21066;-82
2022/07/09 13:33:27;;;;;;;2.80;1.37;;;27.90;99.90;;;;;;1921206;73;21125;-80
2022/07/09 13:36:19;;;;;;;3.50;1.30;;;27.80;99.90;;;;;;1930229;73;21054;-82
2022/07/09 13:39:11;;;;;;;4.78;0.90;;;28.00;99.90;;;;;;1933366;73;21129;-83
2022/07/09 13:42:02;;;;;;;3.45;1.10;;;28.30;99.90;;;;;;1940842;73;21084;-84
2022/07/09 13:44:54;;;;;;;2.10;1.02;;;28.50;99.80;;;;;;1917358;75;21097;-81
2022/07/09 13:47:45;;;;;;;2.00;1.05;;;28.50;99.70;;;;;;1940159;73;21185;-82
2022/07/09 13:50:37;;;;;;;1.72;1.00;;;28.60;99.80;;;;;;1917653;75;21074;-82
2022/07/09 13:53:29;;;;;;;2.33;1.20;;;28.60;99.10;;;;;;1917638;75;21051;-82
2022/07/09 13:56:21;;;;;;;2.92;1.02;;;28.50;99.30;;;;;;1917484;75;21066;-81
2022/07/09 13:59:12;;;;;;;2.85;1.10;;;28.60;98.90;;;;;;1917209;75;21136;-82
2022/07/09 14:02:04;;;;;;;2.08;1.00;;;28.50;99.50;;;;;;1917095;75;21075;-82
2022/07/09 14:04:56;;;;;;;2.52;1.10;;;28.70;99.10;;;;;;1917655;75;21063;-82
2022/07/09 14:07:48;;;;;;;2.30;1.20;;;28.80;99.20;;;;;;1917498;75;21115;-82
2022/07/09 14:10:40;;;;;;;1.82;0.95;;;28.60;98.90;;;;;;1920839;73;21179;-83
2022/07/09 14:13:32;;;;;;;1.35;1.00;;;28.90;99.10;;;;;;1930783;73;21059;-83
2022/07/09 14:16:23;;;;;;;2.15;1.05;;;29.10;98.80;;;;;;1917591;75;21081;-83
2022/07/09 14:19:15;;;;;;;2.27;1.20;;;29.20;98.60;;;;;;1927523;73;21552;-82
2022/07/09 14:22:06;;;;;;;1.62;1.10;;;29.40;98.70;;;;;;1916276;73;21124;-81
2022/07/09 14:24:58;;;;;;;2.87;1.30;;;29.40;98.20;;;;;;1905282;75;21503;-81
2022/07/09 14:27:49;;;;;;;2.85;1.20;;;29.70;97.80;;;;;;1917184;75;21087;-84
2022/07/09 14:30:40;;;;;;;2.60;1.20;;;29.90;97.60;;;;;;1905111;75;21106;-83
2022/07/09 14:33:32;;;;;;;3.85;1.20;;;29.90;97.00;;;;;;1916609;75;21118;-85
2022/07/09 14:36:23;;;;;;;2.12;1.00;;;29.90;96.70;;;;;;1938723;73;21097;-84
2022/07/09 14:39:14;;;;;;;4.53;1.32;;;29.90;96.70;;;;;;1916866;75;21046;-83
2022/07/09 14:42:06;;;;;;;2.58;1.10;;;30.00;96.30;;;;;;1927832;73;21187;-84
2022/07/09 14:44:57;;;;;;;4.08;1.12;;;30.20;96.40;;;;;;1910012;74;21133;-84
2022/07/09 14:47:48;;;;;;;1.82;1.25;;;30.20;95.90;;;;;;1904660;75;21103;-80
2022/07/09 14:50:40;;;;;;;2.70;1.45;;;29.80;96.50;;;;;;1904583;75;21091;-84
2022/07/09 14:53:32;;;;;;;3.92;1.10;;;29.90;96.00;;;;;;1916842;75;21168;-84
2022/07/09 14:56:23;;;;;;;2.58;1.52;;;29.50;96.70;;;;;;1916881;75;21143;-83
2022/07/09 14:59:16;;;;;;;3.22;1.20;;;29.00;97.30;;;;;;1904463;75;21123;-84
2022/07/09 15:02:08;;;;;;;5.70;1.30;;;28.90;97.50;;;;;;1904716;75;21522;-84
2022/07/09 15:05:00;;;;;;;2.22;1.10;;;28.70;97.90;;;;;;1917595;74;21102;-84
2022/07/09 15:07:51;;;;;;;2.20;1.20;;;28.50;98.40;;;;;;1928120;73;21156;-84
2022/07/09 15:10:43;;;;;;;3.12;1.00;;;28.70;98.40;;;;;;1915523;74;21133;-84